createdAt,value
2019-03-06T00:00:47.214Z,7.46
2019-03-06T00:03:15.882Z,7.40
2019-03-06T00:05:44.515Z,7.29
2019-03-06T00:08:13.140Z,7.27
2019-03-06T00:10:41.811Z,7.18
2019-03-06T00:13:10.640Z,7.28
2019-03-06T00:15:39.279Z,7.26
2019-03-06T00:18:07.892Z,7.23
2019-03-06T00:20:36.589Z,7.35
2019-03-06T00:23:05.218Z,7.34
2019-03-06T00:25:33.808Z,7.39
2019-03-06T00:28:02.533Z,7.45
2019-03-06T00:30:31.160Z,7.43
2019-03-06T00:32:59.653Z,7.29
2019-03-06T00:35:39.134Z,7.26
2019-03-06T00:38:07.767Z,7.19
2019-03-06T00:40:44.666Z,7.18
2019-03-06T00:43:13.220Z,7.08
2019-03-06T00:45:41.842Z,7.09
2019-03-06T00:48:10.513Z,7.12
2019-03-06T00:50:39.138Z,6.99
2019-03-06T00:53:07.633Z,6.89
2019-03-06T00:55:36.167Z,6.85
2019-03-06T00:58:04.796Z,6.84
2019-03-06T01:00:33.421Z,6.97
2019-03-06T01:03:02.103Z,7.03
2019-03-06T01:05:30.711Z,7.10
2019-03-06T01:07:59.271Z,7.10
2019-03-06T01:10:27.794Z,7.09
2019-03-06T01:12:56.427Z,7.07
2019-03-06T01:15:25.143Z,7.07
2019-03-06T01:17:53.822Z,7.08
2019-03-06T01:20:22.376Z,7.07
2019-03-06T01:22:51.001Z,6.91
2019-03-06T01:25:20.862Z,6.80
2019-03-06T01:27:49.422Z,6.70
2019-03-06T01:30:24.852Z,6.64
2019-03-06T01:33:11.237Z,6.56
2019-03-06T01:35:44.529Z,6.46
2019-03-06T01:38:31.349Z,6.32
2019-03-06T01:41:04.395Z,6.31
2019-03-06T01:43:34.591Z,6.19
2019-03-06T01:46:03.218Z,6.17
2019-03-06T01:48:31.895Z,6.06
2019-03-06T01:51:00.529Z,5.97
2019-03-06T01:53:29.102Z,5.91
2019-03-06T01:55:57.691Z,5.88
2019-03-06T01:58:26.431Z,5.83
2019-03-06T02:00:55.339Z,5.79
2019-03-06T02:03:23.940Z,5.83
2019-03-06T02:05:52.508Z,5.85
2019-03-06T02:08:21.134Z,5.88
2019-03-06T02:10:50.011Z,5.85
2019-03-06T02:13:21.551Z,5.89
2019-03-06T02:15:50.216Z,5.82
2019-03-06T02:18:18.893Z,5.81
2019-03-06T02:20:47.752Z,5.75
2019-03-06T02:23:16.393Z,5.73
2019-03-06T02:25:45.055Z,5.71
2019-03-06T02:28:13.576Z,5.67
2019-03-06T02:30:42.286Z,5.61
2019-03-06T02:33:10.938Z,5.56
2019-03-06T02:35:39.648Z,5.63
2019-03-06T02:38:08.147Z,5.73
2019-03-06T02:40:36.673Z,5.74
2019-03-06T02:43:05.301Z,5.76
2019-03-06T02:45:33.927Z,5.70
2019-03-06T02:48:02.536Z,5.62
2019-03-06T02:50:31.095Z,5.47
2019-03-06T02:52:59.783Z,5.50
2019-03-06T02:55:28.465Z,5.51
2019-03-06T02:58:01.325Z,5.52
2019-03-06T03:00:31.603Z,5.51
2019-03-06T03:03:04.461Z,5.62
2019-03-06T03:05:34.596Z,5.54
2019-03-06T03:08:03.430Z,5.59
2019-03-06T03:10:32.124Z,5.63
2019-03-06T03:13:00.981Z,5.56
2019-03-06T03:15:29.549Z,5.58
2019-03-06T03:17:58.209Z,5.60
2019-03-06T03:20:26.837Z,5.66
2019-03-06T03:22:55.400Z,5.76
2019-03-06T03:25:24.086Z,5.78
2019-03-06T03:27:52.711Z,5.76
2019-03-06T03:30:21.446Z,5.86
2019-03-06T03:32:49.975Z,5.87
2019-03-06T03:35:18.608Z,5.89
2019-03-06T03:37:47.271Z,6.02
2019-03-06T03:40:16.503Z,6.02
2019-03-06T03:42:45.130Z,6.01
2019-03-06T03:45:15.678Z,5.99
2019-03-06T03:47:44.356Z,6.04
2019-03-06T03:50:13.186Z,6.02
2019-03-06T03:52:42.097Z,5.99
2019-03-06T03:55:13.059Z,5.96
2019-03-06T03:57:41.624Z,6.03
2019-03-06T04:00:15.257Z,5.95
2019-03-06T04:02:43.925Z,6.01
2019-03-06T04:05:13.054Z,6.07
2019-03-06T04:07:41.556Z,5.94
2019-03-06T04:10:14.774Z,5.89
2019-03-06T04:12:43.409Z,5.93
2019-03-06T04:15:18.623Z,6.00
2019-03-06T04:17:47.298Z,5.94
2019-03-06T04:20:16.942Z,5.97
2019-03-06T04:22:45.634Z,6.07
2019-03-06T04:25:14.368Z,6.18
2019-03-06T04:27:42.964Z,6.15
2019-03-06T04:30:13.869Z,6.18
2019-03-06T04:32:45.384Z,6.08
2019-03-06T04:35:14.462Z,6.29
2019-03-06T04:37:43.021Z,6.29
2019-03-06T04:40:13.900Z,6.30
2019-03-06T04:42:42.575Z,6.26
2019-03-06T04:45:13.681Z,6.22
2019-03-06T04:47:42.239Z,6.11
2019-03-06T04:50:12.213Z,5.98
2019-03-06T04:52:41.320Z,5.91
2019-03-06T04:55:11.250Z,5.88
2019-03-06T04:57:39.780Z,5.90
2019-03-06T05:00:16.933Z,5.91
2019-03-06T05:02:45.531Z,5.90
2019-03-06T05:05:14.156Z,5.82
2019-03-06T05:07:42.794Z,5.75
2019-03-06T05:10:15.235Z,5.76
2019-03-06T05:12:43.806Z,5.97
2019-03-06T05:15:24.012Z,5.98
2019-03-06T05:17:54.278Z,5.99
2019-03-06T05:20:22.919Z,6.06
2019-03-06T05:22:51.519Z,6.11
2019-03-06T05:25:20.015Z,6.13
2019-03-06T05:27:48.701Z,6.36
2019-03-06T05:30:19.156Z,6.63
2019-03-06T05:32:53.767Z,6.87
2019-03-06T05:35:49.718Z,7.15
2019-03-06T05:38:27.502Z,7.20
2019-03-06T05:40:56.102Z,7.41
2019-03-06T05:43:24.750Z,7.40
2019-03-06T05:45:53.376Z,7.35
2019-03-06T05:48:21.923Z,7.43
2019-03-06T05:50:50.486Z,7.43
2019-03-06T05:53:19.114Z,7.58
2019-03-06T05:55:47.785Z,7.73
2019-03-06T05:58:16.281Z,7.89
2019-03-06T06:00:44.784Z,8.30
2019-03-06T06:03:13.480Z,8.78
2019-03-06T06:05:42.110Z,8.94
2019-03-06T06:08:10.598Z,9.11
2019-03-06T06:10:39.151Z,8.87
2019-03-06T06:13:07.792Z,8.89
2019-03-06T06:15:36.414Z,8.85
2019-03-06T06:18:05.092Z,8.81
2019-03-06T06:20:33.721Z,8.51
2019-03-06T06:23:12.937Z,8.63
2019-03-06T06:25:41.426Z,8.71
2019-03-06T06:28:10.063Z,8.78
2019-03-06T06:30:38.730Z,8.55
2019-03-06T06:33:07.569Z,8.53
2019-03-06T06:35:36.050Z,8.37
2019-03-06T06:38:04.766Z,8.42
2019-03-06T06:40:33.353Z,8.51
2019-03-06T06:43:01.857Z,8.70
2019-03-06T06:45:30.419Z,8.77
2019-03-06T06:48:13.125Z,9.05
2019-03-06T06:51:01.260Z,9.23
2019-03-06T06:53:42.317Z,9.31
2019-03-06T06:56:47.588Z,9.38
2019-03-06T06:59:41.732Z,9.61
2019-03-06T07:02:32.575Z,9.90
2019-03-06T07:05:24.484Z,10.18
2019-03-06T07:08:11.051Z,10.23
2019-03-06T07:10:57.297Z,10.14
2019-03-06T07:13:30.497Z,10.04
2019-03-06T07:16:00.767Z,10.14
2019-03-06T07:18:31.037Z,10.19
2019-03-06T07:21:04.377Z,10.14
2019-03-06T07:23:37.208Z,10.29
2019-03-06T07:26:13.549Z,10.44
2019-03-06T07:28:46.765Z,10.84
2019-03-06T07:31:17.042Z,10.90
2019-03-06T07:33:52.906Z,10.69
2019-03-06T07:36:39.374Z,10.33
2019-03-06T07:39:10.522Z,10.52
2019-03-06T07:41:40.661Z,10.87
2019-03-06T07:44:10.942Z,11.44
2019-03-06T07:46:53.011Z,11.97
2019-03-06T07:49:26.177Z,12.01
2019-03-06T07:51:59.430Z,12.21
2019-03-06T07:54:29.710Z,12.44
2019-03-06T07:57:12.000Z,13.14
2019-03-06T07:59:40.640Z,13.06
2019-03-06T08:02:23.750Z,13.11
2019-03-06T08:04:54.083Z,13.45
2019-03-06T08:07:22.655Z,13.61
2019-03-06T08:09:51.701Z,13.86
2019-03-06T08:12:34.066Z,13.88
2019-03-06T08:15:20.911Z,13.55
2019-03-06T08:17:53.787Z,13.22
2019-03-06T08:20:30.103Z,12.23
2019-03-06T08:23:16.633Z,12.08
2019-03-06T08:25:44.491Z,11.67
2019-03-06T08:28:13.503Z,11.34
2019-03-06T08:30:46.925Z,11.44
2019-03-06T08:33:18.533Z,11.51
2019-03-06T08:35:46.000Z,11.34
2019-03-06T08:38:14.636Z,11.30
2019-03-06T08:40:43.309Z,11.64
2019-03-06T08:43:11.892Z,11.85
2019-03-06T08:45:58.307Z,12.11
2019-03-06T08:48:34.473Z,12.65
2019-03-06T08:51:07.773Z,12.39
2019-03-06T08:53:54.337Z,12.56
2019-03-06T08:56:24.597Z,12.68
2019-03-06T08:59:09.933Z,12.84
2019-03-06T09:01:40.249Z,13.12
2019-03-06T09:04:11.353Z,12.84
2019-03-06T09:06:42.722Z,12.58
2019-03-06T09:09:25.454Z,12.65
2019-03-06T09:12:10.762Z,12.83
2019-03-06T09:14:59.269Z,12.99
2019-03-06T09:17:48.992Z,13.03
2019-03-06T09:20:24.768Z,13.07
2019-03-06T09:23:07.148Z,12.75
2019-03-06T09:25:53.964Z,12.66
2019-03-06T09:28:26.928Z,12.41
2019-03-06T09:30:57.071Z,11.82
2019-03-06T09:33:27.299Z,11.72
2019-03-06T09:36:14.036Z,11.54
2019-03-06T09:38:50.365Z,11.71
2019-03-06T09:41:29.367Z,11.92
2019-03-06T09:44:02.342Z,12.20
2019-03-06T09:46:38.690Z,12.37
2019-03-06T09:49:14.749Z,12.61
2019-03-06T09:51:44.979Z,12.92
2019-03-06T09:54:24.451Z,13.18
2019-03-06T09:56:54.745Z,13.10
2019-03-06T09:59:25.061Z,13.13
2019-03-06T10:02:07.013Z,13.28
2019-03-06T10:04:50.963Z,13.58
2019-03-06T10:07:33.171Z,13.85
2019-03-06T10:10:15.489Z,13.96
2019-03-06T10:12:54.808Z,13.74
2019-03-06T10:15:43.483Z,13.60
2019-03-06T10:18:20.071Z,13.47
2019-03-06T10:20:57.910Z,13.43
2019-03-06T10:23:26.605Z,13.46
2019-03-06T10:25:55.180Z,13.61
2019-03-06T10:28:27.784Z,13.77
2019-03-06T10:31:02.132Z,13.87
2019-03-06T10:33:24.534Z,13.88
2019-03-06T10:35:53.689Z,14.05
2019-03-06T10:38:22.187Z,14.17
2019-03-06T10:40:50.681Z,14.48
2019-03-06T10:43:19.357Z,14.68
2019-03-06T10:45:47.986Z,14.81
2019-03-06T10:48:16.617Z,14.89
2019-03-06T10:50:45.294Z,14.71
2019-03-06T10:53:13.948Z,14.66
2019-03-06T10:55:42.584Z,14.65
2019-03-06T10:58:11.261Z,14.81
2019-03-06T11:00:48.216Z,14.80
2019-03-06T11:03:16.878Z,14.98
2019-03-06T11:05:45.755Z,15.19
2019-03-06T11:08:14.993Z,15.20
2019-03-06T11:10:43.777Z,15.35
2019-03-06T11:13:12.911Z,15.40
2019-03-06T11:15:41.994Z,15.41
2019-03-06T11:18:11.197Z,15.39
2019-03-06T11:20:40.837Z,15.43
2019-03-06T11:23:11.112Z,15.32
2019-03-06T11:25:40.789Z,15.35
2019-03-06T11:28:14.284Z,15.34
2019-03-06T11:30:48.782Z,15.10
2019-03-06T11:33:18.912Z,14.99
2019-03-06T11:35:48.256Z,14.96
2019-03-06T11:38:17.033Z,14.91
2019-03-06T11:40:45.869Z,14.97
2019-03-06T11:43:14.600Z,15.13
2019-03-06T11:45:43.872Z,15.14
2019-03-06T11:48:13.199Z,15.21
2019-03-06T11:50:41.831Z,15.40
2019-03-06T11:53:10.708Z,15.71
2019-03-06T11:55:39.440Z,16.00
2019-03-06T11:58:10.609Z,16.08
2019-03-06T12:00:46.488Z,15.92
2019-03-06T12:03:17.655Z,15.97
2019-03-06T12:05:47.081Z,16.06
2019-03-06T12:08:18.174Z,15.88
2019-03-06T12:10:47.304Z,15.49
2019-03-06T12:13:17.437Z,15.43
2019-03-06T12:15:51.386Z,15.37
2019-03-06T12:18:22.846Z,15.27
2019-03-06T12:20:51.571Z,14.98
2019-03-06T12:23:20.482Z,14.81
2019-03-06T12:25:49.206Z,14.65
2019-03-06T12:28:18.147Z,14.60
2019-03-06T12:30:47.183Z,14.77
2019-03-06T12:33:21.427Z,14.73
2019-03-06T12:35:50.155Z,14.66
2019-03-06T12:38:20.256Z,14.65
2019-03-06T12:40:49.130Z,14.45
2019-03-06T12:43:17.789Z,14.42
2019-03-06T12:46:12.166Z,14.47
2019-03-06T12:48:40.796Z,14.54
2019-03-06T12:51:09.425Z,14.87
2019-03-06T12:53:38.024Z,14.98
2019-03-06T12:56:06.933Z,14.93
2019-03-06T12:58:35.562Z,14.80
2019-03-06T13:01:04.988Z,14.89
2019-03-06T13:03:33.553Z,14.98
2019-03-06T13:06:02.118Z,15.04
2019-03-06T13:08:30.792Z,15.22
2019-03-06T13:10:59.534Z,15.10
2019-03-06T13:13:35.440Z,14.89
2019-03-06T13:15:58.604Z,14.94
2019-03-06T13:18:28.034Z,15.00
2019-03-06T13:20:56.616Z,15.04
2019-03-06T13:23:25.463Z,15.06
2019-03-06T13:25:54.379Z,15.08
2019-03-06T13:28:23.022Z,15.15
2019-03-06T13:30:51.632Z,15.23
2019-03-06T13:33:30.926Z,15.16
2019-03-06T13:35:59.608Z,14.99
2019-03-06T13:38:28.275Z,14.85
2019-03-06T13:40:56.839Z,14.86
2019-03-06T13:43:25.519Z,14.81
2019-03-06T13:45:54.152Z,14.68
2019-03-06T13:48:22.721Z,14.70
2019-03-06T13:50:51.420Z,14.72
2019-03-06T13:53:20.747Z,14.92
2019-03-06T13:55:49.451Z,14.97
2019-03-06T13:58:18.921Z,14.98
2019-03-06T14:00:47.551Z,15.19
2019-03-06T14:03:16.129Z,15.18
2019-03-06T14:05:44.814Z,15.10
2019-03-06T14:08:13.428Z,15.20
2019-03-06T14:10:41.988Z,15.10
2019-03-06T14:13:10.524Z,15.03
2019-03-06T14:15:39.155Z,15.15
2019-03-06T14:18:11.399Z,15.16
2019-03-06T14:20:40.108Z,15.05
2019-03-06T14:23:08.946Z,15.11
2019-03-06T14:25:37.606Z,15.21
2019-03-06T14:28:06.587Z,15.19
2019-03-06T14:30:37.424Z,15.18
2019-03-06T14:33:06.154Z,15.29
2019-03-06T14:35:34.998Z,15.21
2019-03-06T14:38:04.504Z,15.16
2019-03-06T14:40:34.043Z,15.09
2019-03-06T14:43:04.971Z,15.05
2019-03-06T14:45:33.603Z,14.98
2019-03-06T14:48:02.337Z,14.81
2019-03-06T14:50:31.002Z,14.85
2019-03-06T14:52:59.812Z,14.83
2019-03-06T14:55:28.442Z,14.81
2019-03-06T14:57:57.164Z,14.87
2019-03-06T15:00:25.735Z,14.80
2019-03-06T15:02:54.375Z,14.93
2019-03-06T15:05:23.538Z,14.88
2019-03-06T15:07:52.379Z,14.87
2019-03-06T15:10:21.506Z,14.89
2019-03-06T15:12:50.184Z,14.83
2019-03-06T15:15:20.901Z,14.78
2019-03-06T15:17:49.564Z,14.75
2019-03-06T15:20:24.033Z,14.69
2019-03-06T15:22:54.172Z,14.61
2019-03-06T15:25:24.896Z,14.57
2019-03-06T15:27:53.670Z,14.54
2019-03-06T15:30:22.676Z,14.43
2019-03-06T15:32:51.301Z,14.43
2019-03-06T15:35:20.551Z,14.44
2019-03-06T15:37:49.388Z,14.34
2019-03-06T15:40:22.355Z,14.34
2019-03-06T15:42:51.320Z,14.34
2019-03-06T15:45:21.727Z,14.35
2019-03-06T15:47:50.456Z,14.29
2019-03-06T15:50:19.418Z,14.19
2019-03-06T15:52:48.148Z,14.16
2019-03-06T15:55:19.692Z,14.07
2019-03-06T15:57:48.570Z,14.01
2019-03-06T16:00:24.218Z,13.96
2019-03-06T16:02:52.889Z,13.91
2019-03-06T16:05:21.684Z,13.82
2019-03-06T16:07:50.316Z,13.76
2019-03-06T16:10:19.055Z,13.69
2019-03-06T16:12:48.723Z,13.58
2019-03-06T16:15:17.351Z,13.55
2019-03-06T16:17:46.026Z,13.47
2019-03-06T16:20:17.384Z,13.44
2019-03-06T16:22:46.592Z,13.31
2019-03-06T16:25:15.617Z,13.26
2019-03-06T16:27:44.484Z,13.15
2019-03-06T16:30:21.912Z,13.01
2019-03-06T16:32:50.770Z,12.96
2019-03-06T16:35:19.483Z,12.85
2019-03-06T16:37:48.212Z,12.75
2019-03-06T16:42:55.137Z,12.39
2019-03-06T16:45:30.983Z,12.28
2019-03-06T16:48:00.556Z,12.22
2019-03-06T16:50:29.200Z,12.24
2019-03-06T16:52:58.095Z,12.18
2019-03-06T16:55:27.752Z,12.08
2019-03-06T16:57:57.371Z,11.96
2019-03-06T17:00:33.617Z,11.83
2019-03-06T17:03:06.247Z,11.70
2019-03-06T17:05:35.464Z,11.57
2019-03-06T17:08:05.199Z,11.48
2019-03-06T17:10:38.692Z,11.36
2019-03-06T17:13:07.529Z,11.15
2019-03-06T17:15:36.338Z,11.02
2019-03-06T17:18:11.054Z,10.97
2019-03-06T17:20:39.686Z,10.90
2019-03-06T17:23:08.363Z,10.91
2019-03-06T17:25:37.027Z,10.91
2019-03-06T17:28:06.139Z,10.88
2019-03-06T17:30:35.885Z,10.83
2019-03-06T17:33:10.192Z,10.76
2019-03-06T17:35:39.391Z,10.74
2019-03-06T17:38:11.040Z,10.72
2019-03-06T17:40:40.145Z,10.65
2019-03-06T17:43:09.200Z,10.59
2019-03-06T17:45:38.133Z,10.58
2019-03-06T17:48:07.968Z,10.49
2019-03-06T17:50:39.597Z,10.40
2019-03-06T17:53:08.530Z,10.33
2019-03-06T17:55:37.235Z,10.23
2019-03-06T17:58:05.866Z,10.21
2019-03-06T18:00:45.931Z,10.21
2019-03-06T18:03:16.191Z,10.10
2019-03-06T18:05:44.993Z,9.96
2019-03-06T18:08:13.699Z,9.94
2019-03-06T18:10:42.537Z,9.87
2019-03-06T18:13:11.648Z,9.92
2019-03-06T18:15:40.318Z,9.84
2019-03-06T18:18:08.948Z,9.74
2019-03-06T18:20:37.647Z,9.68
2019-03-06T18:23:06.325Z,9.55
2019-03-06T18:25:34.959Z,9.47
2019-03-06T18:28:03.672Z,9.33
2019-03-06T18:30:32.484Z,9.21
2019-03-06T18:33:01.049Z,9.15
2019-03-06T18:35:29.967Z,9.13
2019-03-06T18:37:58.707Z,9.00
2019-03-06T18:40:27.816Z,8.95
2019-03-06T18:42:56.452Z,8.87
2019-03-06T18:45:25.212Z,8.81
2019-03-06T18:47:53.851Z,8.73
2019-03-06T18:50:23.650Z,8.76
2019-03-06T18:52:52.579Z,8.67
2019-03-06T18:55:24.004Z,8.64
2019-03-06T18:57:52.719Z,8.59
2019-03-06T19:00:25.539Z,8.54
2019-03-06T19:02:54.266Z,8.58
2019-03-06T19:05:23.065Z,8.59
2019-03-06T19:07:52.326Z,8.54
2019-03-06T19:10:22.276Z,8.45
2019-03-06T19:12:51.257Z,8.48
2019-03-06T19:15:24.688Z,8.53
2019-03-06T19:17:53.423Z,8.42
2019-03-06T19:20:22.644Z,8.34
2019-03-06T19:22:54.986Z,8.29
2019-03-06T19:25:23.944Z,8.18
2019-03-06T19:27:52.648Z,8.11
2019-03-06T19:30:23.321Z,8.05
2019-03-06T19:33:09.999Z,8.00
2019-03-06T19:35:38.632Z,8.02
2019-03-06T19:38:07.513Z,8.03
2019-03-06T19:40:36.181Z,7.93
2019-03-06T19:43:05.070Z,7.94
2019-03-06T19:45:33.801Z,7.91
2019-03-06T19:48:02.432Z,7.88
2019-03-06T19:50:31.128Z,7.93
2019-03-06T19:52:59.805Z,7.86
2019-03-06T19:55:28.506Z,7.77
2019-03-06T19:57:59.114Z,7.78
2019-03-06T20:00:29.808Z,7.82
2019-03-06T20:02:59.107Z,7.84
2019-03-06T20:05:36.076Z,7.78
2019-03-06T20:08:07.910Z,7.88
2019-03-06T20:10:43.035Z,7.96
2019-03-06T20:13:12.367Z,7.95
2019-03-06T20:15:41.813Z,7.98
2019-03-06T20:18:10.957Z,7.95
2019-03-06T20:20:39.937Z,7.86
2019-03-06T20:23:08.770Z,7.75
2019-03-06T20:25:37.440Z,7.66
2019-03-06T20:28:06.237Z,7.56
2019-03-06T20:30:34.973Z,7.53
2019-03-06T20:33:03.901Z,7.55
2019-03-06T20:35:32.610Z,7.58
2019-03-06T20:38:01.844Z,7.52
2019-03-06T20:40:30.577Z,7.55
2019-03-06T20:42:59.210Z,7.36
2019-03-06T20:45:27.843Z,7.32
2019-03-06T20:47:56.608Z,7.34
2019-03-06T20:50:25.245Z,7.24
2019-03-06T20:52:54.085Z,7.16
2019-03-06T20:55:22.771Z,7.05
2019-03-06T20:57:51.742Z,6.89
2019-03-06T21:00:23.625Z,6.70
2019-03-06T21:02:52.371Z,6.56
2019-03-06T21:05:21.190Z,6.49
2019-03-06T21:07:49.923Z,6.49
2019-03-06T21:10:19.317Z,6.50
2019-03-06T21:12:47.945Z,6.48
2019-03-06T21:15:20.854Z,6.34
2019-03-06T21:17:49.578Z,6.16
2019-03-06T21:20:22.224Z,6.33
2019-03-06T21:22:50.953Z,6.35
2019-03-06T21:25:20.722Z,6.52
2019-03-06T21:27:49.635Z,6.62
2019-03-06T21:30:30.762Z,6.58
2019-03-06T21:32:59.460Z,6.64
2019-03-06T21:35:28.089Z,6.61
2019-03-06T21:37:56.701Z,6.63
2019-03-06T21:40:25.347Z,6.47
2019-03-06T21:42:53.998Z,6.55
2019-03-06T21:45:22.879Z,6.58
2019-03-06T21:47:51.590Z,6.55
2019-03-06T21:50:20.713Z,6.50
2019-03-06T21:52:49.324Z,6.49
2019-03-06T21:55:18.253Z,6.45
2019-03-06T21:57:47.374Z,6.39
2019-03-06T22:00:23.761Z,6.31
2019-03-06T22:02:52.463Z,6.30
2019-03-06T22:05:21.205Z,6.20
2019-03-06T22:07:50.773Z,6.11
2019-03-06T22:10:20.039Z,6.10
2019-03-06T22:12:48.608Z,6.11
2019-03-06T22:15:21.998Z,5.98
2019-03-06T22:17:50.632Z,5.92
2019-03-06T22:20:22.126Z,5.88
2019-03-06T22:22:50.675Z,5.84
2019-03-06T22:25:19.497Z,5.79
2019-03-06T22:27:48.269Z,5.74
2019-03-06T22:30:22.835Z,5.67
2019-03-06T22:32:52.017Z,5.63
2019-03-06T22:35:20.781Z,5.61
2019-03-06T22:37:49.390Z,5.57
2019-03-06T22:40:19.504Z,5.55
2019-03-06T22:42:48.481Z,5.54
2019-03-06T22:45:18.715Z,5.40
2019-03-06T22:47:47.352Z,5.54
2019-03-06T22:50:17.029Z,5.43
2019-03-06T22:52:48.637Z,5.41
2019-03-06T22:55:18.372Z,5.39
2019-03-06T22:57:47.036Z,5.33
2019-03-06T23:00:30.635Z,5.29
2019-03-06T23:02:59.370Z,5.29
2019-03-06T23:05:29.794Z,5.33
2019-03-06T23:07:58.389Z,5.40
2019-03-06T23:10:27.108Z,5.43
2019-03-06T23:12:55.591Z,5.26
2019-03-06T23:15:24.273Z,5.20
2019-03-06T23:17:52.911Z,5.18
2019-03-06T23:20:21.555Z,5.14
2019-03-06T23:22:50.102Z,5.09
2019-03-06T23:25:18.662Z,5.08
2019-03-06T23:27:47.292Z,5.06
2019-03-06T23:30:16.971Z,5.04
2019-03-06T23:32:45.711Z,5.00
2019-03-06T23:35:14.293Z,4.96
2019-03-06T23:37:42.956Z,5.02
2019-03-06T23:40:12.197Z,5.09
2019-03-06T23:42:40.827Z,4.99
2019-03-06T23:45:13.405Z,5.01
2019-03-06T23:47:42.226Z,5.01
2019-03-06T23:50:12.262Z,4.97
2019-03-06T23:52:59.053Z,4.93
2019-03-06T23:55:29.435Z,4.93
2019-03-06T23:57:58.346Z,4.90
